sensor_id;sensor_type;location;lat;lon;timestamp;temperature;humidity
6724;DHT22;3399;52.530;13.304;2023-09-08T00:00:36;20.00;99.90
6724;DHT22;3399;52.530;13.304;2023-09-08T00:03:01;19.90;99.90
6724;DHT22;3399;52.530;13.304;2023-09-08T00:05:28;19.90;99.90
6724;DHT22;3399;52.530;13.304;2023-09-08T00:07:53;19.80;99.90
6724;DHT22;3399;52.530;13.304;2023-09-08T00:10:18;19.80;99.90
6724;DHT22;3399;52.530;13.304;2023-09-08T00:12:44;19.80;99.90
6724;DHT22;3399;52.530;13.304;2023-09-08T00:15:10;19.70;99.90
6724;DHT22;3399;52.530;13.304;2023-09-08T00:17:35;19.60;99.90
6724;DHT22;3399;52.530;13.304;2023-09-08T00:20:02;19.60;99.90
6724;DHT22;3399;52.530;13.304;2023-09-08T00:22:31;19.60;99.90
6724;DHT22;3399;52.530;13.304;2023-09-08T00:24:57;19.50;99.90
6724;DHT22;3399;52.530;13.304;2023-09-08T00:27:22;19.50;99.90
6724;DHT22;3399;52.530;13.304;2023-09-08T00:29:48;19.40;99.90
6724;DHT22;3399;52.530;13.304;2023-09-08T00:32:13;19.40;99.90
6724;DHT22;3399;52.530;13.304;2023-09-08T00:34:40;19.30;99.90
6724;DHT22;3399;52.530;13.304;2023-09-08T00:37:05;19.30;99.90
6724;DHT22;3399;52.530;13.304;2023-09-08T00:39:34;19.30;99.90
6724;DHT22;3399;52.530;13.304;2023-09-08T00:42:00;19.20;99.90
6724;DHT22;3399;52.530;13.304;2023-09-08T00:44:26;19.20;99.90
6724;DHT22;3399;52.530;13.304;2023-09-08T00:46:51;19.20;99.90
6724;DHT22;3399;52.530;13.304;2023-09-08T00:49:17;19.20;99.90
6724;DHT22;3399;52.530;13.304;2023-09-08T00:51:42;19.10;99.90
6724;DHT22;3399;52.530;13.304;2023-09-08T00:54:08;19.10;99.90
6724;DHT22;3399;52.530;13.304;2023-09-08T00:56:34;19.10;99.90
6724;DHT22;3399;52.530;13.304;2023-09-08T00:59:02;19.10;99.90
6724;DHT22;3399;52.530;13.304;2023-09-08T01:01:28;19.00;99.90
6724;DHT22;3399;52.530;13.304;2023-09-08T01:03:54;19.00;99.90
6724;DHT22;3399;52.530;13.304;2023-09-08T01:06:20;18.90;99.90
6724;DHT22;3399;52.530;13.304;2023-09-08T01:08:46;18.90;99.90
6724;DHT22;3399;52.530;13.304;2023-09-08T01:11:12;18.80;99.90
6724;DHT22;3399;52.530;13.304;2023-09-08T01:13:38;18.80;99.90
6724;DHT22;3399;52.530;13.304;2023-09-08T01:16:03;18.70;99.90
6724;DHT22;3399;52.530;13.304;2023-09-08T01:18:29;18.70;99.90
6724;DHT22;3399;52.530;13.304;2023-09-08T01:26:42;18.60;99.90
6724;DHT22;3399;52.530;13.304;2023-09-08T01:29:09;18.60;99.90
6724;DHT22;3399;52.530;13.304;2023-09-08T01:31:36;18.60;99.90
6724;DHT22;3399;52.530;13.304;2023-09-08T01:34:03;18.50;99.90
6724;DHT22;3399;52.530;13.304;2023-09-08T01:36:34;18.50;99.90
6724;DHT22;3399;52.530;13.304;2023-09-08T01:39:01;18.50;99.90
6724;DHT22;3399;52.530;13.304;2023-09-08T01:41:27;18.50;99.90
6724;DHT22;3399;52.530;13.304;2023-09-08T01:43:52;18.50;99.90
6724;DHT22;3399;52.530;13.304;2023-09-08T01:46:18;18.50;99.90
6724;DHT22;3399;52.530;13.304;2023-09-08T01:48:43;18.50;99.90
6724;DHT22;3399;52.530;13.304;2023-09-08T01:51:09;18.40;99.90
6724;DHT22;3399;52.530;13.304;2023-09-08T01:53:34;18.40;99.90
6724;DHT22;3399;52.530;13.304;2023-09-08T01:56:00;18.40;99.90
6724;DHT22;3399;52.530;13.304;2023-09-08T01:58:26;18.40;99.90
6724;DHT22;3399;52.530;13.304;2023-09-08T02:00:51;18.40;99.90
6724;DHT22;3399;52.530;13.304;2023-09-08T02:03:17;18.40;99.90
6724;DHT22;3399;52.530;13.304;2023-09-08T02:05:43;18.30;99.90
6724;DHT22;3399;52.530;13.304;2023-09-08T02:08:08;18.30;99.90
6724;DHT22;3399;52.530;13.304;2023-09-08T02:10:33;18.30;99.90
6724;DHT22;3399;52.530;13.304;2023-09-08T02:12:59;18.30;99.90
6724;DHT22;3399;52.530;13.304;2023-09-08T02:15:24;18.40;99.90
6724;DHT22;3399;52.530;13.304;2023-09-08T02:17:53;18.40;99.90
6724;DHT22;3399;52.530;13.304;2023-09-08T02:20:22;18.40;99.90
6724;DHT22;3399;52.530;13.304;2023-09-08T02:22:49;18.50;99.90
6724;DHT22;3399;52.530;13.304;2023-09-08T02:25:15;18.50;99.90
6724;DHT22;3399;52.530;13.304;2023-09-08T02:27:41;18.50;99.90
6724;DHT22;3399;52.530;13.304;2023-09-08T02:30:07;18.60;99.90
6724;DHT22;3399;52.530;13.304;2023-09-08T02:32:32;18.60;99.90
6724;DHT22;3399;52.530;13.304;2023-09-08T02:34:58;18.60;99.90
6724;DHT22;3399;52.530;13.304;2023-09-08T02:37:23;18.70;99.90
6724;DHT22;3399;52.530;13.304;2023-09-08T02:39:48;18.70;99.90
6724;DHT22;3399;52.530;13.304;2023-09-08T02:42:14;18.60;99.90
6724;DHT22;3399;52.530;13.304;2023-09-08T02:44:40;18.60;99.90
6724;DHT22;3399;52.530;13.304;2023-09-08T02:47:05;18.60;99.90
6724;DHT22;3399;52.530;13.304;2023-09-08T02:49:31;18.60;99.90
6724;DHT22;3399;52.530;13.304;2023-09-08T02:51:57;18.60;99.90
6724;DHT22;3399;52.530;13.304;2023-09-08T02:54:23;18.70;99.90
6724;DHT22;3399;52.530;13.304;2023-09-08T02:56:48;18.70;99.90
6724;DHT22;3399;52.530;13.304;2023-09-08T02:59:14;18.80;99.90
6724;DHT22;3399;52.530;13.304;2023-09-08T03:01:39;18.80;99.90
6724;DHT22;3399;52.530;13.304;2023-09-08T03:04:05;18.70;99.90
6724;DHT22;3399;52.530;13.304;2023-09-08T03:06:30;18.70;99.90
6724;DHT22;3399;52.530;13.304;2023-09-08T03:08:58;18.70;99.90
6724;DHT22;3399;52.530;13.304;2023-09-08T03:11:24;18.70;99.90
6724;DHT22;3399;52.530;13.304;2023-09-08T03:13:49;18.60;99.90
6724;DHT22;3399;52.530;13.304;2023-09-08T03:16:14;18.70;99.90
6724;DHT22;3399;52.530;13.304;2023-09-08T03:18:41;18.70;99.90
6724;DHT22;3399;52.530;13.304;2023-09-08T03:21:06;18.70;99.90
6724;DHT22;3399;52.530;13.304;2023-09-08T03:23:43;18.70;99.90
6724;DHT22;3399;52.530;13.304;2023-09-08T03:26:09;18.70;99.90
6724;DHT22;3399;52.530;13.304;2023-09-08T03:28:35;18.70;99.90
6724;DHT22;3399;52.530;13.304;2023-09-08T03:31:02;18.60;99.90
6724;DHT22;3399;52.530;13.304;2023-09-08T03:33:27;18.60;99.90
6724;DHT22;3399;52.530;13.304;2023-09-08T03:35:53;18.60;99.90
6724;DHT22;3399;52.530;13.304;2023-09-08T03:38:18;18.60;99.90
6724;DHT22;3399;52.530;13.304;2023-09-08T03:40:44;18.50;99.90
6724;DHT22;3399;52.530;13.304;2023-09-08T03:43:09;18.50;99.90
6724;DHT22;3399;52.530;13.304;2023-09-08T03:45:35;18.50;99.90
6724;DHT22;3399;52.530;13.304;2023-09-08T03:48:00;18.50;99.90
6724;DHT22;3399;52.530;13.304;2023-09-08T03:50:26;18.50;99.90
6724;DHT22;3399;52.530;13.304;2023-09-08T03:52:52;18.50;99.90
6724;DHT22;3399;52.530;13.304;2023-09-08T03:55:18;18.50;99.90
6724;DHT22;3399;52.530;13.304;2023-09-08T03:57:44;18.50;99.90
6724;DHT22;3399;52.530;13.304;2023-09-08T04:00:10;18.30;99.90
6724;DHT22;3399;52.530;13.304;2023-09-08T04:02:36;18.30;99.90
6724;DHT22;3399;52.530;13.304;2023-09-08T04:05:02;18.40;99.90
6724;DHT22;3399;52.530;13.304;2023-09-08T04:07:27;18.30;99.90
6724;DHT22;3399;52.530;13.304;2023-09-08T04:09:53;18.30;99.90
6724;DHT22;3399;52.530;13.304;2023-09-08T04:12:18;18.30;99.90
6724;DHT22;3399;52.530;13.304;2023-09-08T04:14:44;18.30;99.90
6724;DHT22;3399;52.530;13.304;2023-09-08T04:17:09;18.30;99.90
6724;DHT22;3399;52.530;13.304;2023-09-08T04:19:35;18.30;99.90
6724;DHT22;3399;52.530;13.304;2023-09-08T04:22:00;18.30;99.90
6724;DHT22;3399;52.530;13.304;2023-09-08T04:24:26;18.20;99.90
6724;DHT22;3399;52.530;13.304;2023-09-08T04:26:51;18.20;99.90
6724;DHT22;3399;52.530;13.304;2023-09-08T04:29:17;18.30;99.90
6724;DHT22;3399;52.530;13.304;2023-09-08T04:31:42;18.20;99.90
6724;DHT22;3399;52.530;13.304;2023-09-08T04:34:08;18.20;99.90
6724;DHT22;3399;52.530;13.304;2023-09-08T04:36:33;18.20;99.90
6724;DHT22;3399;52.530;13.304;2023-09-08T04:38:59;18.20;99.90
6724;DHT22;3399;52.530;13.304;2023-09-08T04:41:24;18.20;99.90
6724;DHT22;3399;52.530;13.304;2023-09-08T04:43:50;18.20;99.90
6724;DHT22;3399;52.530;13.304;2023-09-08T04:46:15;18.20;99.90
6724;DHT22;3399;52.530;13.304;2023-09-08T04:48:41;18.20;99.90
6724;DHT22;3399;52.530;13.304;2023-09-08T04:51:07;18.20;99.90
6724;DHT22;3399;52.530;13.304;2023-09-08T04:53:33;18.30;99.90
6724;DHT22;3399;52.530;13.304;2023-09-08T04:55:58;18.20;99.90
6724;DHT22;3399;52.530;13.304;2023-09-08T04:58:24;18.20;99.90
6724;DHT22;3399;52.530;13.304;2023-09-08T05:00:49;18.20;99.90
6724;DHT22;3399;52.530;13.304;2023-09-08T05:03:15;18.20;99.90
6724;DHT22;3399;52.530;13.304;2023-09-08T05:05:40;18.30;99.90
6724;DHT22;3399;52.530;13.304;2023-09-08T05:08:06;18.20;99.90
6724;DHT22;3399;52.530;13.304;2023-09-08T05:10:31;18.10;99.90
6724;DHT22;3399;52.530;13.304;2023-09-08T05:12:57;18.20;99.90
6724;DHT22;3399;52.530;13.304;2023-09-08T05:15:23;18.20;99.90
6724;DHT22;3399;52.530;13.304;2023-09-08T05:17:50;18.20;99.90
6724;DHT22;3399;52.530;13.304;2023-09-08T05:20:16;18.20;99.90
6724;DHT22;3399;52.530;13.304;2023-09-08T05:22:42;18.20;99.90
6724;DHT22;3399;52.530;13.304;2023-09-08T05:25:07;18.20;99.90
6724;DHT22;3399;52.530;13.304;2023-09-08T05:27:33;18.30;99.90
6724;DHT22;3399;52.530;13.304;2023-09-08T05:29:59;18.30;99.90
6724;DHT22;3399;52.530;13.304;2023-09-08T05:32:24;18.30;99.90
6724;DHT22;3399;52.530;13.304;2023-09-08T05:34:50;18.30;99.90
6724;DHT22;3399;52.530;13.304;2023-09-08T05:37:15;18.30;99.90
6724;DHT22;3399;52.530;13.304;2023-09-08T05:39:41;18.20;99.90
6724;DHT22;3399;52.530;13.304;2023-09-08T05:42:06;18.20;99.90
6724;DHT22;3399;52.530;13.304;2023-09-08T05:44:32;18.10;99.90
6724;DHT22;3399;52.530;13.304;2023-09-08T05:46:57;18.20;99.90
6724;DHT22;3399;52.530;13.304;2023-09-08T05:49:23;18.20;99.90
6724;DHT22;3399;52.530;13.304;2023-09-08T05:51:48;18.30;99.90
6724;DHT22;3399;52.530;13.304;2023-09-08T05:54:14;18.30;99.90
6724;DHT22;3399;52.530;13.304;2023-09-08T05:56:40;18.30;99.90
6724;DHT22;3399;52.530;13.304;2023-09-08T05:59:05;18.20;99.90
6724;DHT22;3399;52.530;13.304;2023-09-08T06:01:31;18.30;99.90
6724;DHT22;3399;52.530;13.304;2023-09-08T06:03:57;18.40;99.90
6724;DHT22;3399;52.530;13.304;2023-09-08T06:06:22;18.50;99.90
6724;DHT22;3399;52.530;13.304;2023-09-08T06:08:48;18.50;99.90
6724;DHT22;3399;52.530;13.304;2023-09-08T06:11:14;18.60;99.90
6724;DHT22;3399;52.530;13.304;2023-09-08T06:13:39;18.70;99.90
6724;DHT22;3399;52.530;13.304;2023-09-08T06:16:05;18.70;99.90
6724;DHT22;3399;52.530;13.304;2023-09-08T06:18:30;18.70;99.90
6724;DHT22;3399;52.530;13.304;2023-09-08T06:20:56;18.70;99.90
6724;DHT22;3399;52.530;13.304;2023-09-08T06:23:22;18.70;99.90
6724;DHT22;3399;52.530;13.304;2023-09-08T06:25:48;18.80;99.90
6724;DHT22;3399;52.530;13.304;2023-09-08T06:28:14;18.90;99.90
6724;DHT22;3399;52.530;13.304;2023-09-08T06:30:40;18.90;99.90
6724;DHT22;3399;52.530;13.304;2023-09-08T06:33:10;19.00;99.90
6724;DHT22;3399;52.530;13.304;2023-09-08T06:35:35;19.10;99.90
6724;DHT22;3399;52.530;13.304;2023-09-08T06:38:01;19.20;99.90
6724;DHT22;3399;52.530;13.304;2023-09-08T06:40:28;19.30;99.90
6724;DHT22;3399;52.530;13.304;2023-09-08T06:42:54;19.40;99.90
6724;DHT22;3399;52.530;13.304;2023-09-08T06:45:20;19.40;99.90
6724;DHT22;3399;52.530;13.304;2023-09-08T06:47:46;19.50;99.90
6724;DHT22;3399;52.530;13.304;2023-09-08T06:50:11;19.50;99.90
6724;DHT22;3399;52.530;13.304;2023-09-08T06:52:37;19.50;99.90
6724;DHT22;3399;52.530;13.304;2023-09-08T06:55:03;19.60;99.90
6724;DHT22;3399;52.530;13.304;2023-09-08T06:57:30;19.60;99.90
6724;DHT22;3399;52.530;13.304;2023-09-08T06:59:55;19.70;99.90
6724;DHT22;3399;52.530;13.304;2023-09-08T07:02:21;19.80;99.90
6724;DHT22;3399;52.530;13.304;2023-09-08T07:04:46;19.80;99.90
6724;DHT22;3399;52.530;13.304;2023-09-08T07:07:12;19.90;99.90
6724;DHT22;3399;52.530;13.304;2023-09-08T07:09:37;20.00;99.90
6724;DHT22;3399;52.530;13.304;2023-09-08T07:12:06;20.30;99.90
6724;DHT22;3399;52.530;13.304;2023-09-08T07:14:32;20.40;99.90
6724;DHT22;3399;52.530;13.304;2023-09-08T07:16:58;20.60;99.90
6724;DHT22;3399;52.530;13.304;2023-09-08T07:19:23;20.60;99.90
6724;DHT22;3399;52.530;13.304;2023-09-08T07:21:49;20.80;99.90
6724;DHT22;3399;52.530;13.304;2023-09-08T07:24:14;20.90;99.90
6724;DHT22;3399;52.530;13.304;2023-09-08T07:26:40;21.10;99.90
6724;DHT22;3399;52.530;13.304;2023-09-08T07:29:05;21.20;99.90
6724;DHT22;3399;52.530;13.304;2023-09-08T07:31:31;21.20;99.90
6724;DHT22;3399;52.530;13.304;2023-09-08T07:33:56;21.40;99.90
6724;DHT22;3399;52.530;13.304;2023-09-08T07:36:22;21.30;99.90
6724;DHT22;3399;52.530;13.304;2023-09-08T07:38:47;21.50;99.90
6724;DHT22;3399;52.530;13.304;2023-09-08T07:41:13;21.60;99.90
6724;DHT22;3399;52.530;13.304;2023-09-08T07:43:38;21.60;99.90
6724;DHT22;3399;52.530;13.304;2023-09-08T07:46:06;21.60;99.90
6724;DHT22;3399;52.530;13.304;2023-09-08T07:48:32;21.70;99.90
6724;DHT22;3399;52.530;13.304;2023-09-08T07:50:57;21.80;99.90
6724;DHT22;3399;52.530;13.304;2023-09-08T07:53:28;21.80;99.90
6724;DHT22;3399;52.530;13.304;2023-09-08T07:55:53;21.90;99.90
6724;DHT22;3399;52.530;13.304;2023-09-08T07:58:19;22.00;99.90
6724;DHT22;3399;52.530;13.304;2023-09-08T08:00:44;22.10;99.90
6724;DHT22;3399;52.530;13.304;2023-09-08T08:03:10;22.10;99.90
6724;DHT22;3399;52.530;13.304;2023-09-08T08:05:35;22.20;99.90
6724;DHT22;3399;52.530;13.304;2023-09-08T08:08:01;22.20;99.90
6724;DHT22;3399;52.530;13.304;2023-09-08T08:10:27;22.30;99.90
6724;DHT22;3399;52.530;13.304;2023-09-08T08:12:52;22.30;99.90
6724;DHT22;3399;52.530;13.304;2023-09-08T08:15:19;22.40;99.90
6724;DHT22;3399;52.530;13.304;2023-09-08T08:17:48;22.50;99.90
6724;DHT22;3399;52.530;13.304;2023-09-08T08:20:14;22.50;99.90
6724;DHT22;3399;52.530;13.304;2023-09-08T08:22:44;22.60;99.90
6724;DHT22;3399;52.530;13.304;2023-09-08T08:25:12;22.60;99.90
6724;DHT22;3399;52.530;13.304;2023-09-08T08:27:39;22.60;99.90
6724;DHT22;3399;52.530;13.304;2023-09-08T08:30:05;22.60;99.90
6724;DHT22;3399;52.530;13.304;2023-09-08T08:32:31;22.70;99.90
6724;DHT22;3399;52.530;13.304;2023-09-08T08:34:56;22.80;99.90
6724;DHT22;3399;52.530;13.304;2023-09-08T08:37:22;22.80;99.90
6724;DHT22;3399;52.530;13.304;2023-09-08T08:39:48;22.80;99.90
6724;DHT22;3399;52.530;13.304;2023-09-08T08:42:13;22.90;99.90
6724;DHT22;3399;52.530;13.304;2023-09-08T08:44:40;22.90;99.90
6724;DHT22;3399;52.530;13.304;2023-09-08T08:47:10;22.90;99.90
6724;DHT22;3399;52.530;13.304;2023-09-08T08:49:36;23.00;99.90
6724;DHT22;3399;52.530;13.304;2023-09-08T08:52:02;23.10;99.90
6724;DHT22;3399;52.530;13.304;2023-09-08T08:54:34;23.10;99.90
6724;DHT22;3399;52.530;13.304;2023-09-08T08:57:01;23.20;99.90
6724;DHT22;3399;52.530;13.304;2023-09-08T08:59:27;23.20;99.90
6724;DHT22;3399;52.530;13.304;2023-09-08T09:01:54;23.10;99.90
6724;DHT22;3399;52.530;13.304;2023-09-08T09:04:19;23.00;99.90
6724;DHT22;3399;52.530;13.304;2023-09-08T09:06:45;22.70;99.90
6724;DHT22;3399;52.530;13.304;2023-09-08T09:09:11;22.40;99.90
6724;DHT22;3399;52.530;13.304;2023-09-08T09:11:37;22.50;99.90
6724;DHT22;3399;52.530;13.304;2023-09-08T09:14:02;22.30;99.90
6724;DHT22;3399;52.530;13.304;2023-09-08T09:16:29;22.40;99.90
6724;DHT22;3399;52.530;13.304;2023-09-08T09:18:59;22.40;99.90
6724;DHT22;3399;52.530;13.304;2023-09-08T09:21:42;22.20;99.90
6724;DHT22;3399;52.530;13.304;2023-09-08T09:24:07;22.20;99.90
6724;DHT22;3399;52.530;13.304;2023-09-08T09:26:38;22.40;99.90
6724;DHT22;3399;52.530;13.304;2023-09-08T09:29:14;22.60;99.90
6724;DHT22;3399;52.530;13.304;2023-09-08T09:31:56;22.80;99.90
6724;DHT22;3399;52.530;13.304;2023-09-08T09:34:23;22.90;99.90
6724;DHT22;3399;52.530;13.304;2023-09-08T09:36:49;23.20;99.90
6724;DHT22;3399;52.530;13.304;2023-09-08T09:39:22;23.40;99.90
6724;DHT22;3399;52.530;13.304;2023-09-08T09:41:49;23.30;99.90
6724;DHT22;3399;52.530;13.304;2023-09-08T09:44:18;23.30;99.90
6724;DHT22;3399;52.530;13.304;2023-09-08T09:46:47;23.40;99.90
6724;DHT22;3399;52.530;13.304;2023-09-08T09:49:14;23.30;99.90
6724;DHT22;3399;52.530;13.304;2023-09-08T09:51:42;23.20;99.90
6724;DHT22;3399;52.530;13.304;2023-09-08T09:54:08;23.60;99.90
6724;DHT22;3399;52.530;13.304;2023-09-08T09:56:34;23.60;99.90
6724;DHT22;3399;52.530;13.304;2023-09-08T09:59:03;23.90;99.90
6724;DHT22;3399;52.530;13.304;2023-09-08T10:01:29;24.00;99.90
6724;DHT22;3399;52.530;13.304;2023-09-08T10:03:55;23.70;99.90
6724;DHT22;3399;52.530;13.304;2023-09-08T10:06:21;23.60;99.90
6724;DHT22;3399;52.530;13.304;2023-09-08T10:08:47;23.70;99.90
6724;DHT22;3399;52.530;13.304;2023-09-08T10:11:16;24.00;99.90
6724;DHT22;3399;52.530;13.304;2023-09-08T10:13:46;24.20;99.90
6724;DHT22;3399;52.530;13.304;2023-09-08T10:16:16;24.20;99.90
6724;DHT22;3399;52.530;13.304;2023-09-08T10:18:46;24.10;99.90
6724;DHT22;3399;52.530;13.304;2023-09-08T10:21:13;24.30;99.90
6724;DHT22;3399;52.530;13.304;2023-09-08T10:23:44;24.60;99.90
6724;DHT22;3399;52.530;13.304;2023-09-08T10:26:16;24.80;99.90
6724;DHT22;3399;52.530;13.304;2023-09-08T10:28:44;24.90;99.90
6724;DHT22;3399;52.530;13.304;2023-09-08T10:31:10;24.70;99.90
6724;DHT22;3399;52.530;13.304;2023-09-08T10:33:36;24.70;99.90
6724;DHT22;3399;52.530;13.304;2023-09-08T10:36:03;24.80;99.90
6724;DHT22;3399;52.530;13.304;2023-09-08T10:38:34;24.80;99.90
6724;DHT22;3399;52.530;13.304;2023-09-08T10:43:44;25.30;99.50
6724;DHT22;3399;52.530;13.304;2023-09-08T10:46:10;25.60;99.10
6724;DHT22;3399;52.530;13.304;2023-09-08T10:48:43;25.80;98.20
6724;DHT22;3399;52.530;13.304;2023-09-08T10:51:17;25.70;98.70
6724;DHT22;3399;52.530;13.304;2023-09-08T10:53:42;25.50;99.60
6724;DHT22;3399;52.530;13.304;2023-09-08T10:56:11;25.80;99.40
6724;DHT22;3399;52.530;13.304;2023-09-08T10:58:37;26.00;99.30
6724;DHT22;3399;52.530;13.304;2023-09-08T11:01:05;26.30;97.10
6724;DHT22;3399;52.530;13.304;2023-09-08T11:06:03;26.40;97.30
6724;DHT22;3399;52.530;13.304;2023-09-08T11:08:28;26.20;97.10
6724;DHT22;3399;52.530;13.304;2023-09-08T11:10:55;26.50;95.70
6724;DHT22;3399;52.530;13.304;2023-09-08T11:13:21;26.30;96.30
6724;DHT22;3399;52.530;13.304;2023-09-08T11:15:46;26.60;95.60
6724;DHT22;3399;52.530;13.304;2023-09-08T11:18:12;26.60;95.20
6724;DHT22;3399;52.530;13.304;2023-09-08T11:20:37;26.90;94.50
6724;DHT22;3399;52.530;13.304;2023-09-08T11:23:03;27.20;94.00
6724;DHT22;3399;52.530;13.304;2023-09-08T11:25:31;26.40;95.10
6724;DHT22;3399;52.530;13.304;2023-09-08T11:27:58;25.40;96.60
6724;DHT22;3399;52.530;13.304;2023-09-08T11:30:24;24.80;97.20
6724;DHT22;3399;52.530;13.304;2023-09-08T11:32:54;24.90;98.30
6724;DHT22;3399;52.530;13.304;2023-09-08T11:35:20;25.20;97.40
6724;DHT22;3399;52.530;13.304;2023-09-08T11:37:46;25.60;96.70
6724;DHT22;3399;52.530;13.304;2023-09-08T11:40:12;25.90;95.70
6724;DHT22;3399;52.530;13.304;2023-09-08T11:42:43;25.90;96.40
6724;DHT22;3399;52.530;13.304;2023-09-08T11:45:14;26.60;95.30
6724;DHT22;3399;52.530;13.304;2023-09-08T11:47:41;26.50;95.20
6724;DHT22;3399;52.530;13.304;2023-09-08T11:50:07;26.30;95.30
6724;DHT22;3399;52.530;13.304;2023-09-08T11:52:33;26.20;95.10
6724;DHT22;3399;52.530;13.304;2023-09-08T11:54:59;26.10;94.60
6724;DHT22;3399;52.530;13.304;2023-09-08T11:57:25;26.80;93.90
6724;DHT22;3399;52.530;13.304;2023-09-08T11:59:51;27.40;93.20
6724;DHT22;3399;52.530;13.304;2023-09-08T12:02:17;27.10;92.80
6724;DHT22;3399;52.530;13.304;2023-09-08T12:04:42;27.40;93.10
6724;DHT22;3399;52.530;13.304;2023-09-08T12:07:12;27.20;92.90
6724;DHT22;3399;52.530;13.304;2023-09-08T12:09:42;27.20;92.80
6724;DHT22;3399;52.530;13.304;2023-09-08T12:12:12;27.90;91.00
6724;DHT22;3399;52.530;13.304;2023-09-08T12:14:41;27.30;91.50
6724;DHT22;3399;52.530;13.304;2023-09-08T12:17:07;27.00;91.70
6724;DHT22;3399;52.530;13.304;2023-09-08T12:22:03;27.90;90.20
6724;DHT22;3399;52.530;13.304;2023-09-08T12:24:49;28.00;91.10
6724;DHT22;3399;52.530;13.304;2023-09-08T12:27:16;28.20;90.70
6724;DHT22;3399;52.530;13.304;2023-09-08T12:30:04;28.30;89.60
6724;DHT22;3399;52.530;13.304;2023-09-08T12:32:31;28.60;88.40
6724;DHT22;3399;52.530;13.304;2023-09-08T12:35:04;28.40;89.30
6724;DHT22;3399;52.530;13.304;2023-09-08T12:37:32;28.00;90.70
6724;DHT22;3399;52.530;13.304;2023-09-08T12:39:58;28.30;88.10
6724;DHT22;3399;52.530;13.304;2023-09-08T12:42:23;29.10;83.90
6724;DHT22;3399;52.530;13.304;2023-09-08T12:44:54;29.40;81.90
6724;DHT22;3399;52.530;13.304;2023-09-08T12:47:20;30.00;79.50
6724;DHT22;3399;52.530;13.304;2023-09-08T12:49:47;29.80;82.70
6724;DHT22;3399;52.530;13.304;2023-09-08T12:52:12;29.70;77.20
6724;DHT22;3399;52.530;13.304;2023-09-08T12:54:38;29.80;74.60
6724;DHT22;3399;52.530;13.304;2023-09-08T12:57:03;29.80;77.60
6724;DHT22;3399;52.530;13.304;2023-09-08T12:59:29;29.70;78.50
6724;DHT22;3399;52.530;13.304;2023-09-08T13:01:55;30.00;77.00
6724;DHT22;3399;52.530;13.304;2023-09-08T13:04:21;30.10;74.10
6724;DHT22;3399;52.530;13.304;2023-09-08T13:06:47;29.90;77.70
6724;DHT22;3399;52.530;13.304;2023-09-08T13:09:13;29.70;77.20
6724;DHT22;3399;52.530;13.304;2023-09-08T13:11:39;30.00;77.50
6724;DHT22;3399;52.530;13.304;2023-09-08T13:14:05;30.00;77.70
6724;DHT22;3399;52.530;13.304;2023-09-08T13:16:30;29.90;80.60
6724;DHT22;3399;52.530;13.304;2023-09-08T13:18:55;30.30;76.20
6724;DHT22;3399;52.530;13.304;2023-09-08T13:21:21;30.10;76.60
6724;DHT22;3399;52.530;13.304;2023-09-08T13:23:46;30.80;74.40
6724;DHT22;3399;52.530;13.304;2023-09-08T13:26:12;30.70;72.00
6724;DHT22;3399;52.530;13.304;2023-09-08T13:28:37;30.40;74.50
6724;DHT22;3399;52.530;13.304;2023-09-08T13:31:03;30.50;72.80
6724;DHT22;3399;52.530;13.304;2023-09-08T13:33:28;30.40;73.90
6724;DHT22;3399;52.530;13.304;2023-09-08T13:35:54;30.20;77.30
6724;DHT22;3399;52.530;13.304;2023-09-08T13:38:20;30.40;77.40
6724;DHT22;3399;52.530;13.304;2023-09-08T13:40:45;30.50;76.20
6724;DHT22;3399;52.530;13.304;2023-09-08T13:43:11;30.90;74.60
6724;DHT22;3399;52.530;13.304;2023-09-08T13:45:36;30.40;74.10
6724;DHT22;3399;52.530;13.304;2023-09-08T13:48:02;30.90;73.40
6724;DHT22;3399;52.530;13.304;2023-09-08T13:50:29;30.70;74.80
6724;DHT22;3399;52.530;13.304;2023-09-08T13:52:55;30.60;74.20
6724;DHT22;3399;52.530;13.304;2023-09-08T13:55:20;30.70;77.30
6724;DHT22;3399;52.530;13.304;2023-09-08T13:57:52;31.10;69.60
6724;DHT22;3399;52.530;13.304;2023-09-08T14:00:17;30.90;72.20
6724;DHT22;3399;52.530;13.304;2023-09-08T14:02:44;30.90;70.90
6724;DHT22;3399;52.530;13.304;2023-09-08T14:05:09;30.70;77.60
6724;DHT22;3399;52.530;13.304;2023-09-08T14:07:38;30.20;71.30
6724;DHT22;3399;52.530;13.304;2023-09-08T14:10:04;30.30;72.60
6724;DHT22;3399;52.530;13.304;2023-09-08T14:12:33;30.00;73.10
6724;DHT22;3399;52.530;13.304;2023-09-08T14:14:59;30.30;68.70
6724;DHT22;3399;52.530;13.304;2023-09-08T14:17:24;30.40;69.90
6724;DHT22;3399;52.530;13.304;2023-09-08T14:19:50;30.20;73.00
6724;DHT22;3399;52.530;13.304;2023-09-08T14:22:15;30.00;73.50
6724;DHT22;3399;52.530;13.304;2023-09-08T14:24:41;30.10;73.10
6724;DHT22;3399;52.530;13.304;2023-09-08T14:27:07;30.70;68.20
6724;DHT22;3399;52.530;13.304;2023-09-08T14:29:34;30.40;73.60
6724;DHT22;3399;52.530;13.304;2023-09-08T14:32:00;30.60;71.90
6724;DHT22;3399;52.530;13.304;2023-09-08T14:34:25;30.50;72.50
6724;DHT22;3399;52.530;13.304;2023-09-08T14:36:51;30.10;68.20
6724;DHT22;3399;52.530;13.304;2023-09-08T14:39:16;30.60;68.20
6724;DHT22;3399;52.530;13.304;2023-09-08T14:41:44;30.30;67.60
6724;DHT22;3399;52.530;13.304;2023-09-08T14:44:10;30.30;69.10
6724;DHT22;3399;52.530;13.304;2023-09-08T14:46:35;30.30;67.50
6724;DHT22;3399;52.530;13.304;2023-09-08T14:49:01;30.40;67.50
6724;DHT22;3399;52.530;13.304;2023-09-08T14:51:27;30.10;69.40
6724;DHT22;3399;52.530;13.304;2023-09-08T14:53:53;30.00;70.50
6724;DHT22;3399;52.530;13.304;2023-09-08T14:56:18;29.80;71.20
6724;DHT22;3399;52.530;13.304;2023-09-08T14:58:44;29.60;71.10
6724;DHT22;3399;52.530;13.304;2023-09-08T15:01:09;29.60;70.70
6724;DHT22;3399;52.530;13.304;2023-09-08T15:03:35;30.40;65.20
6724;DHT22;3399;52.530;13.304;2023-09-08T15:06:01;30.80;66.30
6724;DHT22;3399;52.530;13.304;2023-09-08T15:08:27;31.30;62.50
6724;DHT22;3399;52.530;13.304;2023-09-08T15:10:53;31.50;62.30
6724;DHT22;3399;52.530;13.304;2023-09-08T15:13:18;31.90;61.40
6724;DHT22;3399;52.530;13.304;2023-09-08T15:15:44;32.00;59.50
6724;DHT22;3399;52.530;13.304;2023-09-08T15:18:10;31.90;60.60
6724;DHT22;3399;52.530;13.304;2023-09-08T15:20:35;31.80;59.30
6724;DHT22;3399;52.530;13.304;2023-09-08T15:23:01;32.00;58.10
6724;DHT22;3399;52.530;13.304;2023-09-08T15:25:26;32.30;57.70
6724;DHT22;3399;52.530;13.304;2023-09-08T15:27:52;31.50;58.00
6724;DHT22;3399;52.530;13.304;2023-09-08T15:30:18;31.60;58.50
6724;DHT22;3399;52.530;13.304;2023-09-08T15:32:43;31.50;57.70
6724;DHT22;3399;52.530;13.304;2023-09-08T15:35:10;31.50;58.90
6724;DHT22;3399;52.530;13.304;2023-09-08T15:37:35;31.70;57.80
6724;DHT22;3399;52.530;13.304;2023-09-08T15:40:01;31.50;57.00
6724;DHT22;3399;52.530;13.304;2023-09-08T15:42:29;31.00;58.00
6724;DHT22;3399;52.530;13.304;2023-09-08T15:44:54;31.00;59.00
6724;DHT22;3399;52.530;13.304;2023-09-08T15:47:20;31.20;56.90
6724;DHT22;3399;52.530;13.304;2023-09-08T15:49:45;31.10;57.70
6724;DHT22;3399;52.530;13.304;2023-09-08T15:52:11;31.40;56.20